Terminal Aerodrome Forecast
Issued by NWS

Home | Current Version | Previous Version | Text Only | Print | Product List | Glossary On
Versions: 1 2 3 4 5 6 7 8 9 10 11 12 13 14 15 16
000
FTUS43 KICT 301547 AAC
TAFCNU
TAF AMD
KCNU 301547Z 3016/3112 02004KT 6SM BR OVC005
     FM301700 09005KT P6SM OVC008
     FM302000 11005KT P6SM OVC015=

USA.gov is the U.S. government's official web portal to all federal, state and local government web resources and services.